Ada, Michigan
Current Conditions -  °F | °C
As of 4:53 AM on Friday 19 Dec 2014 (Local Time) from KGRR Reporting Station
Overcast Overcast  
Wind Chill: -5°   Ceiling: 1900
Heat Index: -2°   Visibility: 10mi
Dew Point: -7°   Wind: 5mph
Humidity: 72%   Direction: 310°NW
Pressure: 30.23"   Gusts: NA
Location:  42.95°N, 85.49°W
Report Text: KGRR 190953Z AUTO 31004KT 10SM OVC019 M02/M07 A3023 RMK AO2 SLP247 T10221067
Loading
Personal Weather Stations






























Interactive Weather Map New forecast layout! Learn more

10-Day Weather Forecast

Advertisements
Track Severe Weather on mobile